Riohacha, Colombia

5:58 PM COT on August 28, 2015 (GMT -0500)
Almirante Padilla | | Change Station
CLOSE
Current Station
Airport
Location: Riohacha,
Elevation: 13 ft
Nearby Weather Stations

Elev 13 ft 11.53 °N, 72.92 °W | Updated 58 minutes ago

Thunderstorm
Thunderstorm
84 °F
Feels Like 94 °F
N
10
Wind Variable Wind from NE

Today
High -- | Low -- °F
--% Chance of Precip.
Yesterday
High -- | Low -- °F
Precip. -- in
5:41 AM 6:04 PM
Waxing Gibbous, 99% visible
Pressure 29.75 in
Visibility 6.2 miles
Clouds Scattered Clouds 2000 ft
Scattered Clouds 20000 ft
Heat Index 94 °F
Dew Point 77 °F
Humidity 79%
Rainfall 0.00 in
Snow Depth Not available.
UV 1 out of 12
Pollen Not available.
Air Quality Not available.
Flu Activity Not available.
METAR SKRH 282200Z 04009KT 9999 TS SCT020CB SCT200 29/25 A2975 RMKCB/S/SW
Pressure 29.75 in
Visibility 6.2 miles
Clouds Scattered Clouds 2000 ft
Scattered Clouds 20000 ft
Heat Index 94 °F
Dew Point 77 °F
Humidity 79%
Rainfall 0.00 in
Snow Depth Not available.
UV 1 out of 12
Pollen Not available.
Air Quality Not available.
Flu Activity Not available.
METAR SKRH 282200Z 04009KT 9999 TS SCT020CB SCT200 29/25 A2975 RMKCB/S/SW

10-Day Weather Forecast

×

Almanac

Astronomy

Aug. 28, 2015 Rise Set
Actual Time
Civil Twilight
Nautical Twilight
Astronomical Twilight
Moon
Length of Visible Light
Length of Day
Tomorrow will be .
, % of the Moon is Illuminated

Today's Extremes

Country Highs Country Lows

Community

WunderPhotos

Upload Photos

1,850,516 photos uploaded!

WunderBlogs® & News

Nearby

Air Quality

  Air Quality AQ Index Pollutant
Not available.

Snow Depth

Station Depth Elevation

Earthquake Activity

City Distance Mag. Time & Date
Minimum magnitude displayed is 2.5.

Coastal Water Temperatures

Place Temperature

Stations

Nearby Weather Stations

Station Location Temp. Windchill Dew Point Humidity Wind Precip. Elev Updated Type